This is the latest recevied weather packets stored in our database for station/object DB0ADS-6. If no packets are shown the sender has not sent any weather packets the latest 10 day(s).
| Time | Temp. | Humidity | Pressure | Rain* | Wind** | Luminosity | Snow |
|---|---|---|---|---|---|---|---|
| 1777879827 | 16.67° C | 52% | 1013.3 hPa | 0 mm | - | - | - |
| 1777879525 | 16.11° C | 53% | 1013.2 hPa | 0 mm | - | - | - |
| 1777879224 | 16.11° C | 53% | 1013.1 hPa | 0 mm | - | - | - |
| 1777878922 | 16.11° C | 53% | 1013.1 hPa | 0 mm | - | - | - |
| 1777878620 | 16.11° C | 53% | 1013.2 hPa | 0 mm | - | - | - |
| 1777878318 | 15.56° C | 54% | 1013.1 hPa | 0 mm | - | - | - |
| 1777878017 | 15.56° C | 56% | 1013.1 hPa | 0 mm | - | - | - |
| 1777877715 | 15.56° C | 55% | 1013.1 hPa | 0 mm | - | - | - |
| 1777877494 | 15.56° C | 56% | 1013.1 hPa | 0 mm | - | - | - |
| 1777877171 | 15° C | 56% | 1013 hPa | 0 mm | - | - | - |
| 1777876890 | 15.56° C | 57% | 1013 hPa | 0 mm | - | - | - |
| 1777876568 | 15.56° C | 55% | 1013 hPa | 0 mm | - | - | - |
| 1777876267 | 15.56° C | 54% | 1013 hPa | 0 mm | - | - | - |
| 1777875965 | 16.11° C | 53% | 1013 hPa | 0 mm | - | - | - |
| 1777875663 | 15.56° C | 53% | 1012.9 hPa | 0 mm | - | - | - |
| 1777875361 | 15° C | 55% | 1012.9 hPa | 0 mm | - | - | - |
| 1777875059 | 14.44° C | 59% | 1012.9 hPa | 0 mm | - | - | - |
| 1777874758 | 14.44° C | 59% | 1012.9 hPa | 0 mm | - | - | - |
| 1777874456 | 13.33° C | 62% | 1013 hPa | 0 mm | - | - | - |
| 1777874154 | 13.33° C | 62% | 1012.9 hPa | 0 mm | - | - | - |
| 1777873853 | 12.78° C | 62% | 1012.9 hPa | 0 mm | - | - | - |
| 1777873551 | 12.22° C | 63% | 1012.9 hPa | 0 mm | - | - | - |
| 1777873249 | 12.22° C | 62% | 1012.9 hPa | 0 mm | - | - | - |
| 1777872948 | 12.22° C | 63% | 1012.9 hPa | 0 mm | - | - | - |
| 1777872646 | 12.22° C | 64% | 1012.8 hPa | 0 mm | - | - | - |
* Rain latest hour (hover to see other rain measurements)
** Current wind speed in m/s (hover to see current wind gust speed)